sensor_id;sensor_type;location;lat;lon;timestamp;P1;durP1;ratioP1;P2;durP2;ratioP2
66087;SDS011;52872;52.994;6.940;2022-12-20T00:01:27;5.47;;;4.45;;
66087;SDS011;52872;52.994;6.940;2022-12-20T00:03:59;6.65;;;4.70;;
66087;SDS011;52872;52.994;6.940;2022-12-20T00:06:29;4.88;;;4.47;;
66087;SDS011;52872;52.994;6.940;2022-12-20T00:08:56;6.68;;;4.90;;
66087;SDS011;52872;52.994;6.940;2022-12-20T00:11:26;5.35;;;4.47;;
66087;SDS011;52872;52.994;6.940;2022-12-20T00:13:53;8.52;;;5.15;;
66087;SDS011;52872;52.994;6.940;2022-12-20T00:16:22;5.93;;;4.60;;
66087;SDS011;52872;52.994;6.940;2022-12-20T00:18:54;5.63;;;4.50;;
66087;SDS011;52872;52.994;6.940;2022-12-20T00:21:23;5.70;;;4.32;;
66087;SDS011;52872;52.994;6.940;2022-12-20T00:23:51;7.05;;;4.60;;
66087;SDS011;52872;52.994;6.940;2022-12-20T00:26:19;6.93;;;4.43;;
66087;SDS011;52872;52.994;6.940;2022-12-20T00:28:49;6.18;;;4.75;;
66087;SDS011;52872;52.994;6.940;2022-12-20T00:31:16;5.90;;;4.50;;
66087;SDS011;52872;52.994;6.940;2022-12-20T00:33:46;4.47;;;4.07;;
66087;SDS011;52872;52.994;6.940;2022-12-20T00:36:15;7.07;;;5.03;;
66087;SDS011;52872;52.994;6.940;2022-12-20T00:38:45;5.30;;;4.22;;
66087;SDS011;52872;52.994;6.940;2022-12-20T00:41:19;5.82;;;4.72;;
66087;SDS011;52872;52.994;6.940;2022-12-20T00:43:49;5.25;;;4.50;;
66087;SDS011;52872;52.994;6.940;2022-12-20T00:46:17;6.65;;;4.88;;
66087;SDS011;52872;52.994;6.940;2022-12-20T00:48:46;4.80;;;4.32;;
66087;SDS011;52872;52.994;6.940;2022-12-20T00:51:14;4.80;;;3.78;;
66087;SDS011;52872;52.994;6.940;2022-12-20T00:53:43;4.85;;;3.90;;
66087;SDS011;52872;52.994;6.940;2022-12-20T00:56:10;4.80;;;4.18;;
66087;SDS011;52872;52.994;6.940;2022-12-20T00:58:39;3.92;;;3.47;;
66087;SDS011;52872;52.994;6.940;2022-12-20T01:01:24;4.72;;;3.65;;
66087;SDS011;52872;52.994;6.940;2022-12-20T01:03:53;7.20;;;3.97;;
66087;SDS011;52872;52.994;6.940;2022-12-20T01:06:20;6.10;;;4.03;;
66087;SDS011;52872;52.994;6.940;2022-12-20T01:08:49;8.60;;;4.30;;
66087;SDS011;52872;52.994;6.940;2022-12-20T01:11:17;4.63;;;4.00;;
66087;SDS011;52872;52.994;6.940;2022-12-20T01:13:47;4.72;;;4.10;;
66087;SDS011;52872;52.994;6.940;2022-12-20T01:16:20;6.07;;;4.00;;
66087;SDS011;52872;52.994;6.940;2022-12-20T01:18:53;5.95;;;4.53;;
66087;SDS011;52872;52.994;6.940;2022-12-20T01:21:21;5.95;;;4.53;;
66087;SDS011;52872;52.994;6.940;2022-12-20T01:23:49;5.85;;;4.07;;
66087;SDS011;52872;52.994;6.940;2022-12-20T01:26:18;6.05;;;4.28;;
66087;SDS011;52872;52.994;6.940;2022-12-20T01:28:51;5.55;;;4.30;;
66087;SDS011;52872;52.994;6.940;2022-12-20T01:33:50;5.13;;;3.92;;
66087;SDS011;52872;52.994;6.940;2022-12-20T01:36:22;5.78;;;3.80;;
66087;SDS011;52872;52.994;6.940;2022-12-20T01:41:23;4.80;;;4.00;;
66087;SDS011;52872;52.994;6.940;2022-12-20T01:43:51;4.53;;;3.95;;
66087;SDS011;52872;52.994;6.940;2022-12-20T01:46:28;5.45;;;4.00;;
66087;SDS011;52872;52.994;6.940;2022-12-20T01:49:17;5.00;;;4.53;;
66087;SDS011;52872;52.994;6.940;2022-12-20T01:56:54;8.38;;;4.60;;
66087;SDS011;52872;52.994;6.940;2022-12-20T01:59:24;4.30;;;3.90;;
66087;SDS011;52872;52.994;6.940;2022-12-20T02:01:55;5.30;;;3.95;;
66087;SDS011;52872;52.994;6.940;2022-12-20T02:04:25;4.43;;;3.92;;
66087;SDS011;52872;52.994;6.940;2022-12-20T02:06:52;5.22;;;4.20;;
66087;SDS011;52872;52.994;6.940;2022-12-20T02:09:19;4.30;;;3.90;;
66087;SDS011;52872;52.994;6.940;2022-12-20T02:14:35;4.55;;;4.10;;
66087;SDS011;52872;52.994;6.940;2022-12-20T02:31:07;4.10;;;3.70;;
66087;SDS011;52872;52.994;6.940;2022-12-20T02:33:40;5.53;;;3.80;;
66087;SDS011;52872;52.994;6.940;2022-12-20T02:36:13;5.38;;;3.97;;
66087;SDS011;52872;52.994;6.940;2022-12-20T02:38:41;4.30;;;3.90;;
66087;SDS011;52872;52.994;6.940;2022-12-20T02:41:11;4.80;;;3.80;;
66087;SDS011;52872;52.994;6.940;2022-12-20T02:43:47;5.32;;;3.97;;
66087;SDS011;52872;52.994;6.940;2022-12-20T02:46:36;4.40;;;3.60;;
66087;SDS011;52872;52.994;6.940;2022-12-20T02:49:06;7.97;;;4.03;;
66087;SDS011;52872;52.994;6.940;2022-12-20T02:51:38;4.30;;;3.88;;
66087;SDS011;52872;52.994;6.940;2022-12-20T02:54:09;4.35;;;3.45;;
66087;SDS011;52872;52.994;6.940;2022-12-20T02:59:54;3.97;;;3.67;;
66087;SDS011;52872;52.994;6.940;2022-12-20T03:02:33;6.05;;;4.05;;
66087;SDS011;52872;52.994;6.940;2022-12-20T03:05:22;4.03;;;3.60;;
66087;SDS011;52872;52.994;6.940;2022-12-20T03:07:51;5.25;;;3.55;;
66087;SDS011;52872;52.994;6.940;2022-12-20T03:10:21;6.20;;;4.10;;
66087;SDS011;52872;52.994;6.940;2022-12-20T03:12:49;4.50;;;3.88;;
66087;SDS011;52872;52.994;6.940;2022-12-20T03:15:16;4.32;;;3.55;;
66087;SDS011;52872;52.994;6.940;2022-12-20T03:17:45;6.10;;;3.70;;
66087;SDS011;52872;52.994;6.940;2022-12-20T03:20:16;5.13;;;4.10;;
66087;SDS011;52872;52.994;6.940;2022-12-20T03:22:43;5.60;;;4.03;;
66087;SDS011;52872;52.994;6.940;2022-12-20T03:25:10;6.82;;;4.57;;
66087;SDS011;52872;52.994;6.940;2022-12-20T03:27:37;5.32;;;4.43;;
66087;SDS011;52872;52.994;6.940;2022-12-20T03:30:05;5.70;;;4.32;;
66087;SDS011;52872;52.994;6.940;2022-12-20T03:32:35;4.60;;;4.05;;
66087;SDS011;52872;52.994;6.940;2022-12-20T03:35:02;7.40;;;4.25;;
66087;SDS011;52872;52.994;6.940;2022-12-20T03:37:34;5.90;;;4.35;;
66087;SDS011;52872;52.994;6.940;2022-12-20T03:40:03;4.13;;;3.53;;
66087;SDS011;52872;52.994;6.940;2022-12-20T03:42:31;5.40;;;4.13;;
66087;SDS011;52872;52.994;6.940;2022-12-20T03:44:58;5.75;;;4.60;;
66087;SDS011;52872;52.994;6.940;2022-12-20T03:47:27;4.45;;;4.03;;
66087;SDS011;52872;52.994;6.940;2022-12-20T03:49:55;6.35;;;3.83;;
66087;SDS011;52872;52.994;6.940;2022-12-20T03:52:23;4.10;;;3.67;;
66087;SDS011;52872;52.994;6.940;2022-12-20T03:54:50;5.28;;;4.35;;
66087;SDS011;52872;52.994;6.940;2022-12-20T03:57:19;5.80;;;3.95;;
66087;SDS011;52872;52.994;6.940;2022-12-20T03:59:48;4.63;;;4.22;;
66087;SDS011;52872;52.994;6.940;2022-12-20T04:02:17;5.78;;;4.20;;
66087;SDS011;52872;52.994;6.940;2022-12-20T04:04:44;5.50;;;3.88;;
66087;SDS011;52872;52.994;6.940;2022-12-20T04:07:12;6.50;;;4.00;;
66087;SDS011;52872;52.994;6.940;2022-12-20T04:09:43;5.10;;;4.38;;
66087;SDS011;52872;52.994;6.940;2022-12-20T04:12:12;5.78;;;4.07;;
66087;SDS011;52872;52.994;6.940;2022-12-20T04:14:39;5.93;;;4.05;;
66087;SDS011;52872;52.994;6.940;2022-12-20T04:17:06;6.18;;;3.97;;
66087;SDS011;52872;52.994;6.940;2022-12-20T04:19:34;4.05;;;3.38;;
66087;SDS011;52872;52.994;6.940;2022-12-20T04:22:02;6.28;;;4.78;;
66087;SDS011;52872;52.994;6.940;2022-12-20T04:24:44;5.57;;;4.25;;
66087;SDS011;52872;52.994;6.940;2022-12-20T04:27:20;4.80;;;4.18;;
66087;SDS011;52872;52.994;6.940;2022-12-20T04:29:49;5.05;;;3.72;;
66087;SDS011;52872;52.994;6.940;2022-12-20T04:32:18;6.13;;;4.35;;
66087;SDS011;52872;52.994;6.940;2022-12-20T04:34:45;5.00;;;4.22;;
66087;SDS011;52872;52.994;6.940;2022-12-20T04:37:12;4.00;;;3.60;;
66087;SDS011;52872;52.994;6.940;2022-12-20T04:39:50;4.85;;;4.13;;
66087;SDS011;52872;52.994;6.940;2022-12-20T04:42:19;5.30;;;4.10;;
66087;SDS011;52872;52.994;6.940;2022-12-20T04:44:47;6.85;;;4.50;;
66087;SDS011;52872;52.994;6.940;2022-12-20T04:47:19;6.68;;;4.07;;
66087;SDS011;52872;52.994;6.940;2022-12-20T04:49:46;5.70;;;4.28;;
66087;SDS011;52872;52.994;6.940;2022-12-20T04:52:13;8.25;;;4.38;;
66087;SDS011;52872;52.994;6.940;2022-12-20T04:54:59;5.82;;;3.90;;
66087;SDS011;52872;52.994;6.940;2022-12-20T04:57:30;7.03;;;4.57;;
66087;SDS011;52872;52.994;6.940;2022-12-20T04:59:57;5.38;;;4.68;;
66087;SDS011;52872;52.994;6.940;2022-12-20T05:02:24;4.63;;;4.22;;
66087;SDS011;52872;52.994;6.940;2022-12-20T05:04:57;6.13;;;4.30;;
66087;SDS011;52872;52.994;6.940;2022-12-20T05:07:24;6.82;;;4.43;;
66087;SDS011;52872;52.994;6.940;2022-12-20T05:09:54;5.72;;;4.40;;
66087;SDS011;52872;52.994;6.940;2022-12-20T05:12:21;6.20;;;4.30;;
66087;SDS011;52872;52.994;6.940;2022-12-20T05:14:48;6.30;;;4.55;;
66087;SDS011;52872;52.994;6.940;2022-12-20T05:17:18;4.97;;;4.50;;
66087;SDS011;52872;52.994;6.940;2022-12-20T05:19:45;5.30;;;4.50;;
66087;SDS011;52872;52.994;6.940;2022-12-20T05:22:14;5.55;;;4.13;;
66087;SDS011;52872;52.994;6.940;2022-12-20T05:25:09;4.93;;;4.18;;
66087;SDS011;52872;52.994;6.940;2022-12-20T05:27:58;4.65;;;4.15;;
66087;SDS011;52872;52.994;6.940;2022-12-20T05:30:28;4.22;;;3.55;;
66087;SDS011;52872;52.994;6.940;2022-12-20T05:32:58;6.20;;;4.13;;
66087;SDS011;52872;52.994;6.940;2022-12-20T05:35:25;5.03;;;4.07;;
66087;SDS011;52872;52.994;6.940;2022-12-20T05:37:59;7.03;;;3.60;;
66087;SDS011;52872;52.994;6.940;2022-12-20T05:40:26;4.28;;;3.88;;
66087;SDS011;52872;52.994;6.940;2022-12-20T05:42:54;3.72;;;3.42;;
66087;SDS011;52872;52.994;6.940;2022-12-20T05:45:28;7.18;;;3.67;;
66087;SDS011;52872;52.994;6.940;2022-12-20T05:48:00;4.68;;;3.72;;
66087;SDS011;52872;52.994;6.940;2022-12-20T05:50:30;3.90;;;3.60;;
66087;SDS011;52872;52.994;6.940;2022-12-20T05:53:23;4.10;;;3.70;;
66087;SDS011;52872;52.994;6.940;2022-12-20T05:55:54;4.00;;;3.55;;
66087;SDS011;52872;52.994;6.940;2022-12-20T05:58:27;5.75;;;3.80;;
66087;SDS011;52872;52.994;6.940;2022-12-20T06:01:03;4.25;;;3.50;;
66087;SDS011;52872;52.994;6.940;2022-12-20T06:03:36;3.95;;;3.55;;
66087;SDS011;52872;52.994;6.940;2022-12-20T06:06:08;5.00;;;4.63;;
66087;SDS011;52872;52.994;6.940;2022-12-20T06:08:40;4.88;;;4.47;;
66087;SDS011;52872;52.994;6.940;2022-12-20T06:11:12;4.13;;;3.42;;
66087;SDS011;52872;52.994;6.940;2022-12-20T06:13:51;6.15;;;4.05;;
66087;SDS011;52872;52.994;6.940;2022-12-20T06:16:18;16.92;;;14.65;;
66087;SDS011;52872;52.994;6.940;2022-12-20T06:18:47;8.75;;;7.90;;
66087;SDS011;52872;52.994;6.940;2022-12-20T06:21:15;6.00;;;5.50;;
66087;SDS011;52872;52.994;6.940;2022-12-20T06:23:43;5.07;;;4.20;;
66087;SDS011;52872;52.994;6.940;2022-12-20T06:26:12;4.90;;;3.53;;
66087;SDS011;52872;52.994;6.940;2022-12-20T06:28:45;3.70;;;3.40;;
66087;SDS011;52872;52.994;6.940;2022-12-20T06:31:22;3.67;;;3.25;;
66087;SDS011;52872;52.994;6.940;2022-12-20T06:33:52;3.78;;;3.42;;
66087;SDS011;52872;52.994;6.940;2022-12-20T06:36:21;3.70;;;3.28;;
66087;SDS011;52872;52.994;6.940;2022-12-20T06:38:48;5.32;;;4.07;;
66087;SDS011;52872;52.994;6.940;2022-12-20T06:41:16;4.43;;;4.00;;
66087;SDS011;52872;52.994;6.940;2022-12-20T06:43:43;4.68;;;3.50;;
66087;SDS011;52872;52.994;6.940;2022-12-20T06:46:10;6.43;;;3.70;;
66087;SDS011;52872;52.994;6.940;2022-12-20T06:48:37;6.55;;;3.38;;
66087;SDS011;52872;52.994;6.940;2022-12-20T06:51:06;5.07;;;3.67;;
66087;SDS011;52872;52.994;6.940;2022-12-20T06:53:33;7.93;;;3.50;;
66087;SDS011;52872;52.994;6.940;2022-12-20T06:56:01;4.75;;;3.53;;
66087;SDS011;52872;52.994;6.940;2022-12-20T06:58:30;5.55;;;4.40;;
66087;SDS011;52872;52.994;6.940;2022-12-20T07:00:57;5.38;;;4.50;;
66087;SDS011;52872;52.994;6.940;2022-12-20T07:03:24;5.18;;;4.68;;
66087;SDS011;52872;52.994;6.940;2022-12-20T07:05:51;5.38;;;4.03;;
66087;SDS011;52872;52.994;6.940;2022-12-20T07:08:19;5.25;;;4.65;;
66087;SDS011;52872;52.994;6.940;2022-12-20T07:10:47;6.93;;;4.97;;
66087;SDS011;52872;52.994;6.940;2022-12-20T07:13:14;5.30;;;4.78;;
66087;SDS011;52872;52.994;6.940;2022-12-20T07:15:41;4.95;;;4.50;;
66087;SDS011;52872;52.994;6.940;2022-12-20T07:18:08;5.82;;;4.90;;
66087;SDS011;52872;52.994;6.940;2022-12-20T07:20:36;5.88;;;5.28;;
66087;SDS011;52872;52.994;6.940;2022-12-20T07:23:03;4.85;;;4.45;;
66087;SDS011;52872;52.994;6.940;2022-12-20T07:25:30;5.00;;;4.47;;
66087;SDS011;52872;52.994;6.940;2022-12-20T07:27:57;5.82;;;4.38;;
66087;SDS011;52872;52.994;6.940;2022-12-20T07:30:24;7.15;;;5.07;;
66087;SDS011;52872;52.994;6.940;2022-12-20T07:32:52;5.45;;;4.95;;
66087;SDS011;52872;52.994;6.940;2022-12-20T07:35:19;5.35;;;4.82;;
66087;SDS011;52872;52.994;6.940;2022-12-20T07:37:45;5.95;;;5.07;;
66087;SDS011;52872;52.994;6.940;2022-12-20T07:40:12;5.40;;;4.78;;
66087;SDS011;52872;52.994;6.940;2022-12-20T07:42:41;6.13;;;4.68;;
66087;SDS011;52872;52.994;6.940;2022-12-20T07:45:13;6.80;;;5.60;;
66087;SDS011;52872;52.994;6.940;2022-12-20T07:47:41;7.57;;;5.90;;
66087;SDS011;52872;52.994;6.940;2022-12-20T07:50:09;5.38;;;4.88;;
66087;SDS011;52872;52.994;6.940;2022-12-20T07:52:37;6.60;;;6.10;;
66087;SDS011;52872;52.994;6.940;2022-12-20T07:55:06;6.07;;;5.32;;
66087;SDS011;52872;52.994;6.940;2022-12-20T07:57:48;6.50;;;5.53;;
66087;SDS011;52872;52.994;6.940;2022-12-20T08:00:18;5.57;;;5.07;;
66087;SDS011;52872;52.994;6.940;2022-12-20T08:03:07;9.05;;;6.47;;
66087;SDS011;52872;52.994;6.940;2022-12-20T08:05:37;5.97;;;5.38;;
66087;SDS011;52872;52.994;6.940;2022-12-20T08:08:08;7.85;;;7.15;;
66087;SDS011;52872;52.994;6.940;2022-12-20T08:10:36;7.95;;;5.90;;
66087;SDS011;52872;52.994;6.940;2022-12-20T08:13:04;5.75;;;4.90;;
66087;SDS011;52872;52.994;6.940;2022-12-20T08:15:33;6.20;;;5.30;;
66087;SDS011;52872;52.994;6.940;2022-12-20T08:18:01;7.93;;;7.13;;
66087;SDS011;52872;52.994;6.940;2022-12-20T08:20:28;6.95;;;6.30;;
66087;SDS011;52872;52.994;6.940;2022-12-20T08:22:55;5.88;;;5.20;;
66087;SDS011;52872;52.994;6.940;2022-12-20T08:25:23;5.88;;;5.22;;
66087;SDS011;52872;52.994;6.940;2022-12-20T08:27:50;5.22;;;4.53;;
66087;SDS011;52872;52.994;6.940;2022-12-20T08:30:18;8.20;;;7.40;;
66087;SDS011;52872;52.994;6.940;2022-12-20T08:32:45;5.13;;;4.63;;
66087;SDS011;52872;52.994;6.940;2022-12-20T08:35:12;5.53;;;4.85;;
66087;SDS011;52872;52.994;6.940;2022-12-20T08:37:39;7.38;;;4.38;;
66087;SDS011;52872;52.994;6.940;2022-12-20T08:40:07;5.57;;;4.78;;
66087;SDS011;52872;52.994;6.940;2022-12-20T08:42:34;6.32;;;4.65;;
66087;SDS011;52872;52.994;6.940;2022-12-20T08:45:01;6.22;;;3.83;;
66087;SDS011;52872;52.994;6.940;2022-12-20T08:47:29;4.97;;;4.20;;
66087;SDS011;52872;52.994;6.940;2022-12-20T08:49:56;4.10;;;3.70;;
66087;SDS011;52872;52.994;6.940;2022-12-20T08:52:23;4.78;;;4.00;;
66087;SDS011;52872;52.994;6.940;2022-12-20T08:54:50;7.90;;;4.10;;
66087;SDS011;52872;52.994;6.940;2022-12-20T08:57:17;5.53;;;3.88;;
66087;SDS011;52872;52.994;6.940;2022-12-20T08:59:44;4.70;;;4.05;;
66087;SDS011;52872;52.994;6.940;2022-12-20T09:02:38;8.68;;;5.35;;
66087;SDS011;52872;52.994;6.940;2022-12-20T09:05:26;6.72;;;4.13;;
66087;SDS011;52872;52.994;6.940;2022-12-20T09:07:52;6.15;;;3.80;;
66087;SDS011;52872;52.994;6.940;2022-12-20T09:10:19;5.22;;;3.88;;
66087;SDS011;52872;52.994;6.940;2022-12-20T09:12:51;4.20;;;3.80;;
66087;SDS011;52872;52.994;6.940;2022-12-20T09:15:22;8.60;;;6.00;;
66087;SDS011;52872;52.994;6.940;2022-12-20T09:17:53;4.00;;;3.60;;
66087;SDS011;52872;52.994;6.940;2022-12-20T09:20:23;5.70;;;4.50;;
66087;SDS011;52872;52.994;6.940;2022-12-20T09:22:50;3.95;;;3.55;;
66087;SDS011;52872;52.994;6.940;2022-12-20T09:25:17;7.25;;;6.65;;
66087;SDS011;52872;52.994;6.940;2022-12-20T09:27:44;5.38;;;4.10;;
66087;SDS011;52872;52.994;6.940;2022-12-20T09:30:11;6.47;;;3.35;;
66087;SDS011;52872;52.994;6.940;2022-12-20T09:32:39;4.55;;;3.60;;
66087;SDS011;52872;52.994;6.940;2022-12-20T09:35:06;5.43;;;3.40;;
66087;SDS011;52872;52.994;6.940;2022-12-20T09:37:33;4.57;;;4.05;;
66087;SDS011;52872;52.994;6.940;2022-12-20T09:40:00;4.20;;;3.30;;
66087;SDS011;52872;52.994;6.940;2022-12-20T09:42:27;6.18;;;3.55;;
66087;SDS011;52872;52.994;6.940;2022-12-20T09:44:58;5.70;;;4.38;;
66087;SDS011;52872;52.994;6.940;2022-12-20T09:47:31;6.95;;;4.57;;
66087;SDS011;52872;52.994;6.940;2022-12-20T09:50:01;3.75;;;3.40;;
66087;SDS011;52872;52.994;6.940;2022-12-20T09:57:52;5.30;;;3.67;;
66087;SDS011;52872;52.994;6.940;2022-12-20T10:00:47;3.70;;;3.33;;
66087;SDS011;52872;52.994;6.940;2022-12-20T10:03:25;4.95;;;4.43;;
66087;SDS011;52872;52.994;6.940;2022-12-20T10:06:21;4.88;;;3.65;;
66087;SDS011;52872;52.994;6.940;2022-12-20T10:08:59;4.05;;;3.50;;
66087;SDS011;52872;52.994;6.940;2022-12-20T10:17:20;4.28;;;3.88;;
66087;SDS011;52872;52.994;6.940;2022-12-20T10:20:08;5.18;;;3.40;;
66087;SDS011;52872;52.994;6.940;2022-12-20T10:22:52;4.15;;;3.80;;
66087;SDS011;52872;52.994;6.940;2022-12-20T10:25:29;4.65;;;3.15;;
66087;SDS011;52872;52.994;6.940;2022-12-20T10:27:59;4.93;;;3.90;;
66087;SDS011;52872;52.994;6.940;2022-12-20T10:30:30;5.07;;;3.95;;
66087;SDS011;52872;52.994;6.940;2022-12-20T10:32:58;4.63;;;3.60;;
66087;SDS011;52872;52.994;6.940;2022-12-20T10:40:34;5.10;;;3.72;;
66087;SDS011;52872;52.994;6.940;2022-12-20T10:43:38;4.75;;;3.40;;
66087;SDS011;52872;52.994;6.940;2022-12-20T10:46:13;5.68;;;3.90;;
66087;SDS011;52872;52.994;6.940;2022-12-20T10:48:45;5.45;;;3.80;;
66087;SDS011;52872;52.994;6.940;2022-12-20T10:51:15;5.65;;;4.00;;
66087;SDS011;52872;52.994;6.940;2022-12-20T10:56:30;6.20;;;4.32;;
66087;SDS011;52872;52.994;6.940;2022-12-20T11:01:44;4.93;;;4.32;;
66087;SDS011;52872;52.994;6.940;2022-12-20T11:04:46;6.25;;;4.07;;
66087;SDS011;52872;52.994;6.940;2022-12-20T11:07:25;4.55;;;4.00;;
66087;SDS011;52872;52.994;6.940;2022-12-20T11:09:55;5.07;;;3.85;;
66087;SDS011;52872;52.994;6.940;2022-12-20T11:12:24;4.60;;;4.20;;
66087;SDS011;52872;52.994;6.940;2022-12-20T11:15:06;5.93;;;4.40;;
66087;SDS011;52872;52.994;6.940;2022-12-20T11:17:36;5.43;;;4.28;;
66087;SDS011;52872;52.994;6.940;2022-12-20T11:28:35;4.85;;;3.53;;
66087;SDS011;52872;52.994;6.940;2022-12-20T11:34:19;6.95;;;4.35;;
66087;SDS011;52872;52.994;6.940;2022-12-20T11:45:41;5.40;;;4.20;;
66087;SDS011;52872;52.994;6.940;2022-12-20T11:56:41;4.82;;;3.88;;
66087;SDS011;52872;52.994;6.940;2022-12-20T12:01:42;4.60;;;4.18;;
66087;SDS011;52872;52.994;6.940;2022-12-20T12:04:26;4.22;;;3.83;;
66087;SDS011;52872;52.994;6.940;2022-12-20T12:07:03;6.35;;;3.83;;
66087;SDS011;52872;52.994;6.940;2022-12-20T12:09:49;4.20;;;3.80;;
66087;SDS011;52872;52.994;6.940;2022-12-20T12:12:27;6.13;;;4.30;;
66087;SDS011;52872;52.994;6.940;2022-12-20T12:23:13;4.88;;;4.15;;
66087;SDS011;52872;52.994;6.940;2022-12-20T12:25:47;6.10;;;4.70;;
66087;SDS011;52872;52.994;6.940;2022-12-20T12:28:14;4.70;;;4.30;;
66087;SDS011;52872;52.994;6.940;2022-12-20T12:30:47;5.60;;;3.72;;
66087;SDS011;52872;52.994;6.940;2022-12-20T12:33:30;5.20;;;3.92;;
66087;SDS011;52872;52.994;6.940;2022-12-20T12:36:24;6.40;;;4.18;;
66087;SDS011;52872;52.994;6.940;2022-12-20T12:44:40;5.15;;;4.13;;
66087;SDS011;52872;52.994;6.940;2022-12-20T12:50:22;4.90;;;4.38;;
66087;SDS011;52872;52.994;6.940;2022-12-20T12:52:55;5.93;;;4.53;;
66087;SDS011;52872;52.994;6.940;2022-12-20T12:55:36;5.10;;;4.60;;
66087;SDS011;52872;52.994;6.940;2022-12-20T12:58:21;5.60;;;4.80;;
66087;SDS011;52872;52.994;6.940;2022-12-20T13:01:01;5.90;;;5.10;;
66087;SDS011;52872;52.994;6.940;2022-12-20T13:03:36;6.25;;;4.82;;
66087;SDS011;52872;52.994;6.940;2022-12-20T13:11:39;5.95;;;5.30;;
66087;SDS011;52872;52.994;6.940;2022-12-20T13:19:50;7.00;;;5.38;;
66087;SDS011;52872;52.994;6.940;2022-12-20T13:22:19;6.88;;;6.18;;
66087;SDS011;52872;52.994;6.940;2022-12-20T13:24:58;8.40;;;6.07;;
66087;SDS011;52872;52.994;6.940;2022-12-20T13:27:46;7.90;;;5.78;;
66087;SDS011;52872;52.994;6.940;2022-12-20T13:43:04;6.38;;;5.75;;
66087;SDS011;52872;52.994;6.940;2022-12-20T13:45:38;6.82;;;5.80;;
66087;SDS011;52872;52.994;6.940;2022-12-20T13:48:11;8.48;;;7.38;;
66087;SDS011;52872;52.994;6.940;2022-12-20T13:50:52;6.60;;;5.88;;
66087;SDS011;52872;52.994;6.940;2022-12-20T13:53:22;6.50;;;5.75;;
66087;SDS011;52872;52.994;6.940;2022-12-20T13:55:52;6.57;;;5.65;;
66087;SDS011;52872;52.994;6.940;2022-12-20T13:58:21;7.53;;;6.68;;
66087;SDS011;52872;52.994;6.940;2022-12-20T14:00:51;6.40;;;5.78;;
66087;SDS011;52872;52.994;6.940;2022-12-20T14:03:23;7.22;;;5.85;;
66087;SDS011;52872;52.994;6.940;2022-12-20T14:06:11;7.78;;;6.13;;
66087;SDS011;52872;52.994;6.940;2022-12-20T14:08:40;6.75;;;5.43;;
66087;SDS011;52872;52.994;6.940;2022-12-20T14:11:15;6.40;;;5.80;;
66087;SDS011;52872;52.994;6.940;2022-12-20T14:13:58;9.25;;;6.65;;
66087;SDS011;52872;52.994;6.940;2022-12-20T14:16:26;6.68;;;6.05;;
66087;SDS011;52872;52.994;6.940;2022-12-20T14:21:27;6.43;;;5.80;;
66087;SDS011;52872;52.994;6.940;2022-12-20T14:23:55;7.15;;;6.35;;
66087;SDS011;52872;52.994;6.940;2022-12-20T14:26:25;6.70;;;6.10;;
66087;SDS011;52872;52.994;6.940;2022-12-20T14:28:57;8.30;;;5.78;;
66087;SDS011;52872;52.994;6.940;2022-12-20T14:31:39;7.53;;;5.93;;
66087;SDS011;52872;52.994;6.940;2022-12-20T14:36:37;6.32;;;5.80;;
66087;SDS011;52872;52.994;6.940;2022-12-20T14:39:28;7.35;;;6.55;;
66087;SDS011;52872;52.994;6.940;2022-12-20T14:44:32;7.23;;;6.53;;
66087;SDS011;52872;52.994;6.940;2022-12-20T14:47:02;7.00;;;6.40;;
66087;SDS011;52872;52.994;6.940;2022-12-20T14:49:39;7.35;;;6.65;;
66087;SDS011;52872;52.994;6.940;2022-12-20T14:52:13;8.73;;;7.20;;
66087;SDS011;52872;52.994;6.940;2022-12-20T14:57:51;7.53;;;6.47;;
66087;SDS011;52872;52.994;6.940;2022-12-20T15:00:24;9.75;;;7.47;;
66087;SDS011;52872;52.994;6.940;2022-12-20T15:10:47;10.27;;;7.75;;
66087;SDS011;52872;52.994;6.940;2022-12-20T15:13:16;8.95;;;8.05;;
66087;SDS011;52872;52.994;6.940;2022-12-20T15:15:44;8.90;;;8.10;;
66087;SDS011;52872;52.994;6.940;2022-12-20T15:20:40;14.13;;;9.52;;
66087;SDS011;52872;52.994;6.940;2022-12-20T15:23:11;9.57;;;8.68;;
66087;SDS011;52872;52.994;6.940;2022-12-20T15:25:43;10.82;;;9.73;;
66087;SDS011;52872;52.994;6.940;2022-12-20T15:28:13;10.95;;;9.50;;
66087;SDS011;52872;52.994;6.940;2022-12-20T15:33:17;10.45;;;9.15;;
66087;SDS011;52872;52.994;6.940;2022-12-20T15:35:48;13.02;;;9.85;;
66087;SDS011;52872;52.994;6.940;2022-12-20T15:38:23;10.68;;;9.57;;
66087;SDS011;52872;52.994;6.940;2022-12-20T15:41:19;10.63;;;9.52;;
66087;SDS011;52872;52.994;6.940;2022-12-20T15:43:59;12.30;;;11.10;;
66087;SDS011;52872;52.994;6.940;2022-12-20T15:46:30;15.05;;;13.43;;
66087;SDS011;52872;52.994;6.940;2022-12-20T15:48:57;12.80;;;11.45;;
66087;SDS011;52872;52.994;6.940;2022-12-20T15:54:05;17.02;;;14.00;;
66087;SDS011;52872;52.994;6.940;2022-12-20T15:56:39;13.43;;;11.82;;
66087;SDS011;52872;52.994;6.940;2022-12-20T15:59:06;14.80;;;11.93;;
66087;SDS011;52872;52.994;6.940;2022-12-20T16:01:53;14.80;;;13.18;;
66087;SDS011;52872;52.994;6.940;2022-12-20T16:04:21;12.88;;;11.15;;
66087;SDS011;52872;52.994;6.940;2022-12-20T16:06:48;14.23;;;12.65;;
66087;SDS011;52872;52.994;6.940;2022-12-20T16:09:19;14.13;;;12.68;;
66087;SDS011;52872;52.994;6.940;2022-12-20T16:11:46;12.45;;;11.23;;
66087;SDS011;52872;52.994;6.940;2022-12-20T16:14:15;10.95;;;9.85;;
66087;SDS011;52872;52.994;6.940;2022-12-20T16:16:43;10.55;;;9.55;;
66087;SDS011;52872;52.994;6.940;2022-12-20T16:19:10;10.88;;;9.82;;
66087;SDS011;52872;52.994;6.940;2022-12-20T16:21:41;11.23;;;10.23;;
66087;SDS011;52872;52.994;6.940;2022-12-20T16:24:12;10.77;;;9.77;;
66087;SDS011;52872;52.994;6.940;2022-12-20T16:26:41;10.50;;;9.50;;
66087;SDS011;52872;52.994;6.940;2022-12-20T16:29:09;11.77;;;10.57;;
66087;SDS011;52872;52.994;6.940;2022-12-20T16:31:37;17.67;;;15.88;;
66087;SDS011;52872;52.994;6.940;2022-12-20T16:34:06;11.77;;;10.57;;
66087;SDS011;52872;52.994;6.940;2022-12-20T16:36:38;13.02;;;11.73;;
66087;SDS011;52872;52.994;6.940;2022-12-20T16:39:05;12.80;;;11.20;;
66087;SDS011;52872;52.994;6.940;2022-12-20T16:41:35;22.60;;;20.25;;
66087;SDS011;52872;52.994;6.940;2022-12-20T16:44:04;26.08;;;23.42;;
66087;SDS011;52872;52.994;6.940;2022-12-20T16:46:32;20.17;;;18.05;;
66087;SDS011;52872;52.994;6.940;2022-12-20T16:49:00;21.70;;;19.35;;
66087;SDS011;52872;52.994;6.940;2022-12-20T16:54:00;15.20;;;12.25;;
66087;SDS011;52872;52.994;6.940;2022-12-20T16:56:45;19.70;;;17.65;;
66087;SDS011;52872;52.994;6.940;2022-12-20T16:59:13;14.15;;;12.75;;
66087;SDS011;52872;52.994;6.940;2022-12-20T17:01:47;17.55;;;14.70;;
66087;SDS011;52872;52.994;6.940;2022-12-20T17:04:16;14.35;;;12.85;;
66087;SDS011;52872;52.994;6.940;2022-12-20T17:06:43;16.08;;;13.00;;
66087;SDS011;52872;52.994;6.940;2022-12-20T17:09:12;22.55;;;20.27;;
66087;SDS011;52872;52.994;6.940;2022-12-20T17:11:41;14.73;;;13.23;;
66087;SDS011;52872;52.994;6.940;2022-12-20T17:14:10;16.90;;;14.75;;
66087;SDS011;52872;52.994;6.940;2022-12-20T17:16:39;16.38;;;14.73;;
66087;SDS011;52872;52.994;6.940;2022-12-20T17:19:07;16.70;;;14.68;;
66087;SDS011;52872;52.994;6.940;2022-12-20T17:21:37;18.45;;;15.13;;
66087;SDS011;52872;52.994;6.940;2022-12-20T17:24:27;14.73;;;13.23;;
66087;SDS011;52872;52.994;6.940;2022-12-20T17:26:54;17.38;;;14.43;;
66087;SDS011;52872;52.994;6.940;2022-12-20T17:29:21;16.90;;;14.68;;
66087;SDS011;52872;52.994;6.940;2022-12-20T17:31:48;16.13;;;14.43;;
66087;SDS011;52872;52.994;6.940;2022-12-20T17:34:16;16.55;;;14.85;;
66087;SDS011;52872;52.994;6.940;2022-12-20T17:36:47;15.88;;;13.90;;
66087;SDS011;52872;52.994;6.940;2022-12-20T17:39:16;17.48;;;15.13;;
66087;SDS011;52872;52.994;6.940;2022-12-20T17:41:44;17.08;;;14.68;;